createdAt,value
2019-03-20T00:00:15.951Z,13.13
2019-03-20T00:02:44.684Z,13.43
2019-03-20T00:05:13.695Z,16.27
2019-03-20T00:07:42.528Z,15.40
2019-03-20T00:10:13.095Z,13.60
2019-03-20T00:12:43.406Z,14.67
2019-03-20T00:15:14.595Z,14.00
2019-03-20T00:17:43.847Z,12.67
2019-03-20T00:20:12.973Z,11.17
2019-03-20T00:22:43.131Z,12.33
2019-03-20T00:25:11.922Z,11.60
2019-03-20T00:27:40.976Z,12.40
2019-03-20T00:30:11.213Z,13.17
2019-03-20T00:32:39.738Z,11.50
2019-03-20T00:35:09.100Z,10.60
2019-03-20T00:37:38.055Z,11.83
2019-03-20T00:40:07.989Z,11.40
2019-03-20T00:42:36.574Z,10.23
2019-03-20T00:45:07.358Z,10.33
2019-03-20T00:47:36.301Z,10.77
2019-03-20T00:50:07.090Z,8.37
2019-03-20T00:52:35.724Z,9.20
2019-03-20T00:55:05.024Z,9.17
2019-03-20T00:57:33.699Z,8.90
2019-03-20T01:00:02.961Z,7.70
2019-03-20T01:02:33.291Z,8.10
2019-03-20T01:05:12.145Z,7.50
2019-03-20T01:07:33.760Z,8.35
2019-03-20T01:10:02.637Z,7.75
2019-03-20T01:12:31.998Z,8.30
2019-03-20T01:15:00.785Z,6.37
2019-03-20T01:17:29.592Z,7.50
2019-03-20T01:19:59.788Z,8.17
2019-03-20T01:22:28.187Z,6.37
2019-03-20T01:24:57.096Z,7.40
2019-03-20T01:27:26.007Z,7.30
2019-03-20T01:29:54.711Z,5.83
2019-03-20T01:32:23.391Z,5.80
2019-03-20T01:34:51.813Z,7.15
2019-03-20T01:37:20.692Z,5.77
2019-03-20T01:39:49.500Z,5.08
2019-03-20T01:42:18.364Z,6.00
2019-03-20T01:44:46.882Z,6.30
2019-03-20T01:47:17.200Z,5.87
2019-03-20T01:49:47.392Z,6.45
2019-03-20T01:52:17.298Z,5.28
2019-03-20T01:54:45.797Z,5.37
2019-03-20T01:57:14.236Z,6.25
2019-03-20T01:59:42.875Z,6.03
2019-03-20T02:02:11.993Z,5.73
2019-03-20T02:04:40.524Z,5.20
2019-03-20T02:07:08.986Z,5.03
2019-03-20T02:09:37.761Z,5.20
2019-03-20T02:12:06.485Z,5.17
2019-03-20T02:14:35.032Z,5.50
2019-03-20T02:17:03.456Z,6.00
2019-03-20T02:19:31.877Z,5.42
2019-03-20T02:22:00.486Z,5.53
2019-03-20T02:24:28.908Z,5.95
2019-03-20T02:26:57.288Z,4.78
2019-03-20T02:29:26.287Z,4.78
2019-03-20T02:31:54.930Z,5.47
2019-03-20T02:34:23.647Z,6.75
2019-03-20T02:36:52.322Z,5.62
2019-03-20T02:39:21.170Z,4.75
2019-03-20T02:41:49.595Z,5.33
2019-03-20T02:44:17.979Z,5.40
2019-03-20T02:46:46.503Z,5.10
2019-03-20T02:49:15.604Z,5.42
2019-03-20T02:51:44.134Z,5.65
2019-03-20T02:54:12.617Z,5.65
2019-03-20T02:56:41.105Z,5.60
2019-03-20T02:59:09.637Z,5.95
2019-03-20T03:01:38.053Z,5.75
2019-03-20T03:04:06.794Z,4.90
2019-03-20T03:06:35.367Z,5.03
2019-03-20T03:09:07.186Z,4.67
2019-03-20T03:11:36.006Z,5.75
2019-03-20T03:14:04.773Z,5.28
2019-03-20T03:16:35.124Z,4.67
2019-03-20T03:19:04.044Z,5.62
2019-03-20T03:21:32.646Z,4.75
2019-03-20T03:24:01.148Z,4.45
2019-03-20T03:26:29.724Z,5.10
2019-03-20T03:28:58.166Z,4.37
2019-03-20T03:31:26.695Z,4.15
2019-03-20T03:33:55.836Z,5.22
2019-03-20T03:36:24.261Z,5.70
2019-03-20T03:38:52.978Z,5.65
2019-03-20T03:41:21.700Z,5.55
2019-03-20T03:43:50.404Z,5.50
2019-03-20T03:46:19.016Z,5.87
2019-03-20T03:48:48.285Z,5.17
2019-03-20T03:51:16.817Z,4.65
2019-03-20T03:53:45.593Z,4.37
2019-03-20T03:56:14.342Z,5.45
2019-03-20T03:58:44.412Z,4.80
2019-03-20T04:01:12.923Z,4.75
2019-03-20T04:03:41.547Z,4.37
2019-03-20T04:06:10.370Z,4.08
2019-03-20T04:08:40.325Z,4.37
2019-03-20T04:11:08.848Z,3.33
2019-03-20T04:13:37.788Z,3.72
2019-03-20T04:16:06.276Z,3.95
2019-03-20T04:18:34.837Z,3.55
2019-03-20T04:21:03.293Z,3.70
2019-03-20T04:23:33.367Z,3.98
2019-03-20T04:26:02.162Z,3.08
2019-03-20T04:28:30.774Z,3.58
2019-03-20T04:30:59.624Z,3.77
2019-03-20T04:33:28.292Z,4.95
2019-03-20T04:35:56.709Z,4.95
2019-03-20T04:38:25.518Z,4.05
2019-03-20T04:40:54.283Z,3.45
2019-03-20T04:43:22.898Z,4.28
2019-03-20T04:45:51.372Z,4.42
2019-03-20T04:48:19.829Z,5.15
2019-03-20T04:50:48.396Z,6.17
2019-03-20T04:53:18.318Z,5.67
2019-03-20T04:55:46.819Z,5.92
2019-03-20T04:58:15.603Z,4.12
2019-03-20T05:00:44.027Z,4.50
2019-03-20T05:03:12.819Z,4.58
2019-03-20T05:05:41.680Z,4.00
2019-03-20T05:08:10.331Z,3.98
2019-03-20T05:10:39.069Z,4.10
2019-03-20T05:13:07.623Z,4.03
2019-03-20T05:15:40.003Z,3.65
2019-03-20T05:18:08.643Z,4.03
2019-03-20T05:20:37.284Z,4.25
2019-03-20T05:23:08.506Z,4.00
2019-03-20T05:25:37.211Z,3.42
2019-03-20T05:28:05.876Z,2.80
2019-03-20T05:30:35.879Z,3.67
2019-03-20T05:33:04.657Z,3.45
2019-03-20T05:35:33.164Z,3.85
2019-03-20T05:38:01.790Z,3.40
2019-03-20T05:40:30.406Z,3.45
2019-03-20T05:43:00.582Z,3.70
2019-03-20T05:45:39.877Z,3.77
2019-03-20T05:48:09.446Z,3.42
2019-03-20T05:50:38.143Z,3.42
2019-03-20T05:53:07.039Z,5.25
2019-03-20T05:55:35.718Z,4.22
2019-03-20T05:58:05.943Z,3.83
2019-03-20T06:00:35.402Z,4.05
2019-03-20T06:03:03.853Z,4.05
2019-03-20T06:05:33.035Z,5.50
2019-03-20T06:08:01.541Z,4.10
2019-03-20T06:10:29.920Z,3.85
2019-03-20T06:12:58.402Z,3.95
2019-03-20T06:15:29.032Z,4.80
2019-03-20T06:17:57.695Z,4.53
2019-03-20T06:20:26.108Z,4.50
2019-03-20T06:22:54.577Z,4.22
2019-03-20T06:25:23.078Z,4.30
2019-03-20T06:27:52.995Z,4.20
2019-03-20T06:30:21.808Z,4.97
2019-03-20T06:32:50.196Z,3.90
2019-03-20T06:35:18.586Z,3.80
2019-03-20T06:37:48.701Z,4.45
2019-03-20T06:40:17.219Z,4.67
2019-03-20T06:42:45.733Z,4.42
2019-03-20T06:45:14.123Z,4.03
2019-03-20T06:47:42.660Z,4.83
2019-03-20T06:50:13.910Z,4.22
2019-03-20T06:52:42.419Z,5.08
2019-03-20T06:55:10.817Z,4.80
2019-03-20T06:57:40.677Z,5.85
2019-03-20T07:00:49.669Z,4.53
2019-03-20T07:03:49.457Z,4.75
2019-03-20T07:07:12.185Z,3.67
2019-03-20T07:10:01.542Z,2.97
2019-03-20T07:12:29.934Z,2.70
2019-03-20T07:14:58.442Z,2.17
2019-03-20T07:17:26.980Z,1.45
2019-03-20T07:19:55.619Z,1.80
2019-03-20T07:22:24.080Z,1.77
2019-03-20T07:24:52.569Z,2.07
2019-03-20T07:27:21.010Z,1.70
2019-03-20T07:29:51.201Z,2.60
2019-03-20T07:32:20.093Z,2.43
2019-03-20T07:34:50.272Z,2.33
2019-03-20T07:37:19.199Z,2.23
2019-03-20T07:39:49.271Z,1.90
2019-03-20T07:42:17.691Z,2.53
2019-03-20T07:44:46.175Z,2.60
2019-03-20T07:47:14.901Z,2.57
2019-03-20T07:49:44.284Z,2.13
2019-03-20T07:52:12.869Z,1.80
2019-03-20T07:54:41.569Z,2.70
2019-03-20T07:57:09.960Z,2.70
2019-03-20T07:59:40.160Z,1.97
2019-03-20T08:02:10.363Z,2.60
2019-03-20T08:04:39.755Z,2.27
2019-03-20T08:07:08.449Z,2.07
2019-03-20T08:09:37.114Z,2.67
2019-03-20T08:12:05.642Z,2.53
2019-03-20T08:14:34.431Z,2.70
2019-03-20T08:17:03.060Z,2.37
2019-03-20T08:19:31.459Z,2.67
2019-03-20T08:21:59.863Z,2.10
2019-03-20T08:24:28.340Z,2.40
2019-03-20T08:26:58.587Z,3.90
2019-03-20T08:29:27.532Z,2.40
2019-03-20T08:31:55.924Z,1.63
2019-03-20T08:34:24.625Z,1.73
2019-03-20T08:36:53.228Z,2.30
2019-03-20T08:39:22.027Z,2.37
2019-03-20T08:44:36.994Z,2.50
2019-03-20T08:47:05.521Z,2.40
2019-03-20T08:49:33.957Z,2.40
2019-03-20T08:52:02.331Z,2.43
2019-03-20T08:54:30.733Z,2.17
2019-03-20T08:57:00.891Z,2.83
2019-03-20T08:59:29.873Z,2.30
2019-03-20T09:01:58.358Z,2.20
2019-03-20T09:04:26.831Z,2.10
2019-03-20T09:06:55.325Z,2.50
2019-03-20T09:09:23.711Z,2.23
2019-03-20T09:11:52.156Z,2.57
2019-03-20T09:14:20.536Z,2.00
2019-03-20T09:16:49.052Z,2.73
2019-03-20T09:19:17.643Z,2.10
2019-03-20T09:21:47.437Z,2.50
2019-03-20T09:24:17.627Z,2.23
2019-03-20T09:26:46.103Z,2.03
2019-03-20T09:29:18.829Z,1.57
2019-03-20T09:31:44.876Z,2.40
2019-03-20T09:34:13.364Z,1.87
2019-03-20T09:36:43.350Z,1.73
2019-03-20T09:39:12.195Z,1.90
2019-03-20T09:41:40.580Z,2.53
2019-03-20T09:44:09.366Z,2.30
2019-03-20T09:46:38.040Z,1.73
2019-03-20T09:49:06.528Z,1.87
2019-03-20T09:51:34.918Z,2.13
2019-03-20T09:54:03.328Z,1.97
2019-03-20T09:56:31.862Z,1.77
2019-03-20T09:59:00.507Z,2.13
2019-03-20T10:01:29.013Z,1.77
2019-03-20T10:03:57.521Z,1.70
2019-03-20T10:06:25.999Z,2.10
2019-03-20T10:08:54.714Z,2.50
2019-03-20T10:11:23.135Z,2.07
2019-03-20T10:13:51.651Z,1.90
2019-03-20T10:16:20.023Z,2.30
2019-03-20T10:18:48.649Z,2.13
2019-03-20T10:21:17.198Z,2.03
2019-03-20T10:23:45.557Z,2.27
2019-03-20T10:26:14.051Z,2.00
2019-03-20T10:28:42.510Z,2.73
2019-03-20T10:31:10.910Z,2.30
2019-03-20T10:33:39.402Z,1.70
2019-03-20T10:36:07.884Z,2.20
2019-03-20T10:38:36.502Z,2.30
2019-03-20T10:41:05.067Z,1.93
2019-03-20T10:43:33.502Z,1.67
2019-03-20T10:46:01.895Z,1.83
2019-03-20T10:48:30.471Z,2.00
2019-03-20T10:50:59.663Z,1.60
2019-03-20T10:53:28.145Z,2.07
2019-03-20T10:55:56.748Z,2.40
2019-03-20T10:58:25.171Z,2.73
2019-03-20T11:00:53.673Z,2.00
2019-03-20T11:03:23.852Z,2.10
2019-03-20T11:05:52.362Z,1.90
2019-03-20T11:08:20.866Z,2.67
2019-03-20T11:10:49.251Z,2.93
2019-03-20T11:13:18.357Z,2.13
2019-03-20T11:15:53.365Z,2.13
2019-03-20T11:18:21.887Z,2.57
2019-03-20T11:20:50.364Z,3.20
2019-03-20T11:23:18.876Z,2.53
2019-03-20T11:25:48.480Z,2.20
2019-03-20T11:28:16.970Z,1.77
2019-03-20T11:30:45.735Z,2.50
2019-03-20T11:33:14.133Z,2.30
2019-03-20T11:35:42.716Z,2.60
2019-03-20T11:38:12.746Z,2.70
2019-03-20T11:40:41.286Z,2.53
2019-03-20T11:43:09.741Z,2.47
2019-03-20T11:45:54.554Z,2.10
2019-03-20T11:48:22.974Z,1.83
2019-03-20T11:50:51.478Z,2.23
2019-03-20T11:53:19.874Z,2.37
2019-03-20T11:55:48.264Z,2.27
2019-03-20T11:58:16.746Z,2.40
2019-03-20T12:00:45.652Z,1.97
2019-03-20T12:03:14.149Z,2.40
2019-03-20T12:05:42.654Z,2.50
2019-03-20T12:08:11.573Z,2.30
2019-03-20T12:10:39.943Z,2.30
2019-03-20T12:13:08.619Z,2.30
2019-03-20T12:15:39.880Z,2.70
2019-03-20T12:18:09.141Z,2.43
2019-03-20T12:20:38.937Z,2.63
2019-03-20T12:23:07.415Z,2.60
2019-03-20T12:25:37.037Z,1.90
2019-03-20T12:28:07.338Z,1.83
2019-03-20T12:30:36.084Z,2.40
2019-03-20T12:33:04.694Z,2.53
2019-03-20T12:35:33.164Z,2.13
2019-03-20T12:38:13.343Z,2.00
2019-03-20T12:40:33.720Z,2.37
2019-03-20T12:43:02.705Z,2.77
2019-03-20T12:45:32.330Z,2.37
2019-03-20T12:48:01.186Z,3.13
2019-03-20T12:50:29.710Z,2.50
2019-03-20T12:52:58.252Z,2.70
2019-03-20T12:55:26.696Z,2.53
2019-03-20T12:57:55.380Z,2.30
2019-03-20T13:00:23.915Z,2.53
2019-03-20T13:02:52.318Z,2.70
2019-03-20T13:05:21.032Z,2.10
2019-03-20T13:07:49.698Z,2.57
2019-03-20T13:10:18.782Z,2.47
2019-03-20T13:12:47.457Z,2.77
2019-03-20T13:15:19.070Z,2.20
2019-03-20T13:17:47.486Z,2.73
2019-03-20T13:20:15.988Z,3.53
2019-03-20T13:22:47.196Z,2.60
2019-03-20T13:25:15.714Z,1.90
2019-03-20T13:27:44.279Z,2.33
2019-03-20T13:30:20.330Z,2.90
2019-03-20T13:32:49.046Z,2.63
2019-03-20T13:35:17.422Z,2.77
2019-03-20T13:37:46.007Z,2.40
2019-03-20T13:40:16.185Z,2.30
2019-03-20T13:42:46.499Z,2.30
2019-03-20T13:45:15.519Z,2.80
2019-03-20T13:47:44.086Z,2.43
2019-03-20T13:50:13.403Z,2.17
2019-03-20T13:52:43.603Z,2.20
2019-03-20T13:55:12.259Z,2.60
2019-03-20T13:57:41.037Z,2.27
2019-03-20T14:00:19.875Z,2.27
2019-03-20T14:02:48.397Z,1.87
2019-03-20T14:05:17.000Z,2.20
2019-03-20T14:07:45.771Z,3.20
2019-03-20T14:10:24.652Z,2.87
2019-03-20T14:12:47.176Z,3.37
2019-03-20T14:15:16.965Z,3.67
2019-03-20T14:17:45.428Z,3.30
2019-03-20T14:20:19.952Z,3.27
2019-03-20T14:22:50.141Z,3.67
2019-03-20T14:25:18.648Z,2.67
2019-03-20T14:27:47.127Z,3.33
2019-03-20T14:30:21.612Z,2.70
2019-03-20T14:32:50.212Z,3.10
2019-03-20T14:35:18.706Z,2.17
2019-03-20T14:37:47.212Z,3.17
2019-03-20T14:40:17.512Z,3.10
2019-03-20T14:42:46.248Z,2.50
2019-03-20T14:45:14.903Z,3.30
2019-03-20T14:47:43.685Z,4.00
2019-03-20T14:50:15.815Z,3.67
2019-03-20T14:52:44.402Z,3.67
2019-03-20T14:55:14.310Z,3.40
2019-03-20T14:57:42.901Z,3.67
2019-03-20T15:00:21.024Z,3.53
2019-03-20T15:02:50.450Z,3.63
2019-03-20T15:05:18.936Z,3.90
2019-03-20T15:07:47.894Z,4.27
2019-03-20T15:10:18.322Z,3.57
2019-03-20T15:12:47.537Z,4.10
2019-03-20T15:15:39.340Z,2.90
2019-03-20T15:18:09.952Z,3.63
2019-03-20T15:20:40.128Z,3.50
2019-03-20T15:23:08.516Z,3.63
2019-03-20T15:25:37.055Z,2.70
2019-03-20T15:28:06.595Z,3.37
2019-03-20T15:30:35.090Z,4.20
2019-03-20T15:33:03.477Z,3.43
2019-03-20T15:35:32.053Z,3.40
2019-03-20T15:38:01.849Z,3.63
2019-03-20T15:40:32.147Z,3.30
2019-03-20T15:43:00.964Z,3.43
2019-03-20T15:45:29.776Z,3.17
2019-03-20T15:47:58.334Z,2.83
2019-03-20T15:50:26.866Z,3.93
2019-03-20T15:52:55.990Z,2.47
2019-03-20T15:55:27.627Z,3.60
2019-03-20T15:57:56.805Z,3.70
2019-03-20T16:00:25.529Z,3.47
2019-03-20T16:03:01.423Z,3.70
2019-03-20T16:05:29.928Z,3.30
2019-03-20T16:07:59.856Z,4.40
2019-03-20T16:10:30.336Z,4.10
2019-03-20T16:12:58.852Z,3.27
2019-03-20T16:15:27.757Z,4.30
2019-03-20T16:17:56.396Z,3.30
2019-03-20T16:20:25.146Z,3.83
2019-03-20T16:22:55.536Z,3.80
2019-03-20T16:25:24.530Z,3.23
2019-03-20T16:27:54.949Z,3.67
2019-03-20T16:30:23.524Z,3.37
2019-03-20T16:32:52.400Z,3.60
2019-03-20T16:35:21.010Z,3.50
2019-03-20T16:37:49.582Z,3.70
2019-03-20T16:40:20.554Z,3.20
2019-03-20T16:42:49.227Z,3.37
2019-03-20T16:45:24.005Z,3.80
2019-03-20T16:47:52.792Z,3.33
2019-03-20T16:50:22.226Z,3.33
2019-03-20T16:52:50.965Z,4.60
2019-03-20T16:55:21.211Z,4.57
2019-03-20T16:57:50.185Z,3.63
2019-03-20T17:00:25.478Z,4.30
2019-03-20T17:02:54.382Z,4.90
2019-03-20T17:05:23.740Z,3.20
2019-03-20T17:07:52.745Z,4.00
2019-03-20T17:10:27.933Z,4.07
2019-03-20T17:12:59.013Z,4.33
2019-03-20T17:15:28.774Z,4.80
2019-03-20T17:17:57.792Z,4.37
2019-03-20T17:20:26.442Z,5.87
2019-03-20T17:22:55.369Z,4.80
2019-03-20T17:25:23.980Z,3.60
2019-03-20T17:27:53.457Z,3.40
2019-03-20T17:30:31.843Z,4.53
2019-03-20T17:33:00.573Z,3.80
2019-03-20T17:35:30.297Z,3.80
2019-03-20T17:37:59.120Z,4.07
2019-03-20T17:40:27.806Z,3.60
2019-03-20T17:42:56.987Z,4.23
2019-03-20T17:45:26.192Z,4.37
2019-03-20T17:47:54.983Z,6.50
2019-03-20T17:50:26.761Z,8.23
2019-03-20T17:52:55.317Z,8.03
2019-03-20T17:55:23.947Z,11.80
2019-03-20T17:57:53.689Z,10.60
2019-03-20T18:00:31.137Z,10.30
2019-03-20T18:03:00.042Z,9.77
2019-03-20T18:05:28.930Z,9.27
2019-03-20T18:07:57.629Z,8.73
2019-03-20T18:10:26.141Z,13.00
2019-03-20T18:12:54.742Z,15.40
2019-03-20T18:15:23.555Z,14.77
2019-03-20T18:17:52.232Z,13.20
2019-03-20T18:20:21.946Z,11.63
2019-03-20T18:22:50.822Z,13.33
2019-03-20T18:25:21.075Z,13.50
2019-03-20T18:27:50.214Z,15.23
2019-03-20T18:30:21.909Z,11.87
2019-03-20T18:32:50.524Z,9.20
2019-03-20T18:35:19.851Z,8.73
2019-03-20T18:37:49.665Z,7.80
2019-03-20T18:40:18.563Z,18.30
2019-03-20T18:42:47.325Z,24.13
2019-03-20T18:45:17.564Z,21.80
2019-03-20T18:47:48.911Z,18.10
2019-03-20T18:50:18.929Z,15.90
2019-03-20T18:52:48.032Z,14.93
2019-03-20T18:55:18.203Z,13.27
2019-03-20T18:57:47.091Z,17.17
2019-03-20T19:00:21.699Z,25.17
2019-03-20T19:02:51.338Z,31.97
2019-03-20T19:05:30.966Z,29.00
2019-03-20T19:08:04.755Z,25.97
2019-03-20T19:10:33.724Z,20.57
2019-03-20T19:13:02.796Z,19.83
2019-03-20T19:15:31.603Z,18.03
2019-03-20T19:18:00.141Z,19.90
2019-03-20T19:20:28.626Z,19.23
2019-03-20T19:22:57.227Z,19.53
2019-03-20T19:25:25.887Z,17.57
2019-03-20T19:27:54.635Z,18.63
2019-03-20T19:30:23.235Z,19.30
2019-03-20T19:32:52.126Z,18.50
2019-03-20T19:35:20.759Z,18.40
2019-03-20T19:37:49.698Z,16.73
2019-03-20T19:40:18.305Z,15.97
2019-03-20T19:42:47.353Z,14.27
2019-03-20T19:45:16.370Z,12.20
2019-03-20T19:47:45.188Z,12.87
2019-03-20T19:50:13.734Z,11.83
2019-03-20T19:52:42.290Z,12.03
2019-03-20T19:55:10.774Z,10.60
2019-03-20T19:57:39.691Z,9.98
2019-03-20T20:00:13.312Z,10.77
2019-03-20T20:02:42.335Z,8.33
2019-03-20T20:05:15.611Z,7.90
2019-03-20T20:07:41.663Z,9.83
2019-03-20T20:10:10.459Z,7.85
2019-03-20T20:12:38.969Z,7.72
2019-03-20T20:15:14.676Z,7.10
2019-03-20T20:17:43.823Z,5.80
2019-03-20T20:20:14.998Z,6.92
2019-03-20T20:22:45.531Z,6.08
2019-03-20T20:25:14.543Z,5.87
2019-03-20T20:27:43.115Z,7.12
2019-03-20T20:30:14.519Z,8.00
2019-03-20T20:32:43.248Z,8.93
2019-03-20T20:35:12.331Z,9.95
2019-03-20T20:37:41.438Z,9.85
2019-03-20T20:40:12.915Z,9.63
2019-03-20T20:42:43.142Z,15.80
2019-03-20T20:45:12.189Z,15.95
2019-03-20T20:47:40.991Z,15.10
2019-03-20T20:50:10.437Z,14.70
2019-03-20T20:52:39.212Z,16.73
2019-03-20T20:55:10.896Z,14.28
2019-03-20T20:57:41.342Z,12.28
2019-03-20T21:00:14.914Z,11.20
2019-03-20T21:02:43.369Z,10.53
2019-03-20T21:05:12.146Z,8.58
2019-03-20T21:07:40.747Z,8.40
2019-03-20T21:10:10.881Z,8.25
2019-03-20T21:12:42.481Z,7.75
2019-03-20T21:15:45.096Z,6.40
2019-03-20T21:19:12.504Z,6.65
2019-03-20T21:22:43.493Z,5.15
2019-03-20T21:25:15.022Z,6.60
2019-03-20T21:28:56.896Z,6.87
2019-03-20T21:31:46.616Z,5.50
2019-03-20T21:35:33.323Z,5.10
2019-03-20T21:38:04.221Z,5.03
2019-03-20T21:41:26.122Z,6.55
2019-03-20T21:44:40.353Z,5.47
2019-03-20T21:47:34.010Z,6.35
2019-03-20T21:51:00.106Z,6.05
2019-03-20T21:54:17.960Z,5.35
2019-03-20T21:57:28.991Z,6.53
2019-03-20T22:01:06.073Z,5.45
2019-03-20T22:03:35.758Z,6.00
2019-03-20T22:07:04.515Z,7.37
2019-03-20T22:10:39.593Z,7.25
2019-03-20T22:13:46.968Z,7.83
2019-03-20T22:17:34.095Z,7.30
2019-03-20T22:20:46.011Z,6.70
2019-03-20T22:23:57.575Z,8.50
2019-03-20T22:27:11.514Z,8.13
2019-03-20T22:29:41.176Z,9.35
2019-03-20T22:33:34.981Z,10.45
2019-03-20T22:36:13.686Z,8.73
2019-03-20T22:39:39.622Z,9.58
2019-03-20T22:42:54.351Z,8.65
2019-03-20T22:46:31.296Z,9.60
2019-03-20T22:49:55.520Z,8.93
2019-03-20T22:53:57.951Z,8.93
2019-03-20T22:57:06.050Z,8.83
2019-03-20T22:59:36.976Z,7.03
2019-03-20T23:02:23.986Z,7.72
2019-03-20T23:04:58.316Z,8.18
2019-03-20T23:07:27.926Z,7.65
2019-03-20T23:09:59.104Z,7.97
2019-03-20T23:12:28.326Z,7.35
2019-03-20T23:14:58.024Z,7.72
2019-03-20T23:17:28.127Z,7.45
2019-03-20T23:19:58.056Z,7.85
2019-03-20T23:22:27.564Z,7.30
2019-03-20T23:24:58.895Z,7.60
2019-03-20T23:27:30.553Z,7.67
2019-03-20T23:30:01.108Z,8.15
2019-03-20T23:32:30.915Z,6.65
2019-03-20T23:35:00.355Z,8.33
2019-03-20T23:37:29.600Z,8.30
2019-03-20T23:40:00.782Z,7.55
2019-03-20T23:42:30.368Z,7.95
2019-03-20T23:45:00.183Z,9.33
2019-03-20T23:47:47.864Z,9.65
2019-03-20T23:50:17.445Z,10.88
2019-03-20T23:52:46.694Z,9.50
2019-03-20T23:55:16.220Z,9.83
2019-03-20T23:57:45.485Z,10.72
